createdAt,value
2019-04-25T00:04:31.525Z,10.53
2019-04-25T00:09:41.358Z,10.70
2019-04-25T00:14:48.142Z,11.03
2019-04-25T00:19:52.929Z,10.83
2019-04-25T00:25:17.939Z,10.79
2019-04-25T00:30:22.590Z,10.67
2019-04-25T00:35:25.047Z,10.75
2019-04-25T00:40:27.350Z,10.74
2019-04-25T00:45:29.436Z,10.76
2019-04-25T00:50:31.975Z,10.58
2019-04-25T00:55:34.191Z,10.73
2019-04-25T01:00:57.678Z,10.51
2019-04-25T01:06:03.854Z,10.41
2019-04-25T01:11:06.052Z,10.41
2019-04-25T01:16:13.040Z,10.45
2019-04-25T01:21:15.123Z,9.94
2019-04-25T01:26:21.989Z,10.31
2019-04-25T01:31:30.422Z,10.40
2019-04-25T01:36:47.226Z,10.03
2019-04-25T01:42:01.079Z,9.97
2019-04-25T01:47:04.266Z,10.21
2019-04-25T01:52:06.635Z,10.19
2019-04-25T01:57:09.292Z,10.17
2019-04-25T02:02:14.465Z,10.12
2019-04-25T02:07:17.037Z,10.03
2019-04-25T02:12:37.077Z,10.06
2019-04-25T02:17:39.191Z,9.72
2019-04-25T02:22:41.553Z,9.83
2019-04-25T02:27:44.209Z,9.79
2019-04-25T02:32:46.486Z,9.69
2019-04-25T02:37:49.077Z,9.71
2019-04-25T02:42:54.193Z,9.66
2019-04-25T02:48:34.348Z,9.66
2019-04-25T02:53:44.663Z,9.68
2019-04-25T02:58:46.606Z,9.80
2019-04-25T03:03:48.830Z,9.80
2019-04-25T03:08:50.990Z,9.72
2019-04-25T03:13:54.599Z,9.72
2019-04-25T03:19:18.921Z,9.41
2019-04-25T03:24:21.070Z,9.42
2019-04-25T03:29:24.899Z,9.42
2019-04-25T03:34:27.047Z,9.65
2019-04-25T03:39:29.174Z,9.31
2019-04-25T03:44:31.297Z,9.45
2019-04-25T03:49:33.727Z,9.45
2019-04-25T03:54:35.908Z,9.26
2019-04-25T03:59:38.028Z,9.26
2019-04-25T04:04:40.320Z,9.25
2019-04-25T04:09:43.556Z,9.30
2019-04-25T04:14:45.776Z,9.33
2019-04-25T04:19:54.963Z,9.33
2019-04-25T04:25:00.597Z,9.54
2019-04-25T04:30:06.501Z,9.47
2019-04-25T04:35:10.766Z,9.50
2019-04-25T04:40:17.252Z,9.50
2019-04-25T04:45:19.081Z,9.46
2019-04-25T04:50:21.135Z,9.61
2019-04-25T04:55:23.678Z,9.54
2019-04-25T05:28:30.895Z,10.32
2019-04-25T05:33:33.867Z,10.32
2019-04-25T05:38:36.154Z,10.49
2019-04-25T05:43:38.288Z,10.45
2019-04-25T05:48:41.573Z,10.70
2019-04-25T05:53:43.694Z,10.93
2019-04-25T05:58:46.056Z,11.11
2019-04-25T06:03:48.361Z,11.51
2019-04-25T06:09:00.507Z,11.51
2019-04-25T06:14:13.530Z,11.29
2019-04-25T06:19:37.525Z,11.26
2019-04-25T06:24:51.520Z,11.48
2019-04-25T06:30:07.934Z,11.57
2019-04-25T06:35:11.923Z,11.68
2019-04-25T06:40:17.883Z,11.74
2019-04-25T06:45:55.394Z,11.77
2019-04-25T06:51:55.244Z,11.90
2019-04-25T06:57:27.027Z,11.87
2019-04-25T07:02:53.277Z,12.22
2019-04-25T07:08:03.485Z,11.99
2019-04-25T07:13:21.511Z,12.21
2019-04-25T07:18:43.719Z,12.39
2019-04-25T07:24:17.479Z,12.52
2019-04-25T07:29:38.145Z,12.50
2019-04-25T07:34:50.622Z,12.87
2019-04-25T07:40:01.281Z,13.14
2019-04-25T07:45:10.597Z,13.16
2019-04-25T07:50:39.412Z,13.33
2019-04-25T07:55:51.463Z,13.38
2019-04-25T08:00:57.525Z,13.80
2019-04-25T08:06:05.266Z,14.04
2019-04-25T08:11:14.953Z,14.09
2019-04-25T08:16:23.400Z,14.34
2019-04-25T08:21:39.822Z,14.62
2019-04-25T08:26:47.770Z,14.63
2019-04-25T08:31:59.330Z,14.95
2019-04-25T08:37:17.410Z,14.95
2019-04-25T08:42:19.072Z,15.27
2019-04-25T08:47:35.099Z,15.76
2019-04-25T08:52:42.367Z,16.31
2019-04-25T08:58:13.775Z,16.18
2019-04-25T09:03:40.447Z,16.40
2019-04-25T09:08:58.673Z,16.57
2019-04-25T09:14:49.736Z,17.00
2019-04-25T09:20:06.291Z,17.45
2019-04-25T09:25:15.527Z,17.62
2019-04-25T09:30:25.995Z,17.82
2019-04-25T09:35:54.119Z,18.03
2019-04-25T09:41:05.308Z,18.05
2019-04-25T09:46:24.323Z,18.07
2019-04-25T09:51:36.017Z,18.24
2019-04-25T09:56:55.369Z,18.32
2019-04-25T10:02:02.123Z,18.43
2019-04-25T10:07:12.410Z,18.43
2019-04-25T10:12:17.790Z,18.56
2019-04-25T10:17:26.797Z,18.73
2019-04-25T10:22:33.906Z,18.74
2019-04-25T10:27:58.658Z,18.64
2019-04-25T10:33:06.665Z,18.59
2019-04-25T10:38:16.122Z,18.79
2019-04-25T10:43:24.805Z,19.04
2019-04-25T10:48:34.263Z,18.87
2019-04-25T10:53:46.900Z,19.05
2019-04-25T10:58:56.102Z,19.18
2019-04-25T11:04:10.879Z,18.99
2019-04-25T11:09:30.472Z,19.47
2019-04-25T11:14:46.444Z,19.61
2019-04-25T11:19:53.946Z,19.47
2019-04-25T11:25:13.544Z,19.64
2019-04-25T11:30:23.776Z,19.69
2019-04-25T11:35:35.307Z,19.97
2019-04-25T11:40:49.297Z,20.27
2019-04-25T11:45:59.685Z,20.32
2019-04-25T11:51:03.733Z,20.38
2019-04-25T11:56:14.325Z,20.62
2019-04-25T12:01:18.864Z,20.67
2019-04-25T12:06:26.933Z,20.64
2019-04-25T12:11:35.444Z,20.87
2019-04-25T12:16:51.613Z,21.02
2019-04-25T12:22:06.711Z,21.06
2019-04-25T12:27:17.003Z,21.04
2019-04-25T12:32:29.699Z,21.07
2019-04-25T12:37:48.090Z,21.28
2019-04-25T12:43:09.464Z,21.35
2019-04-25T12:48:25.364Z,21.11
2019-04-25T12:53:33.377Z,21.63
2019-04-25T12:58:45.350Z,21.59
2019-04-25T13:04:10.151Z,22.04
2019-04-25T13:09:31.795Z,22.03
2019-04-25T13:14:59.294Z,22.34
2019-04-25T13:20:21.083Z,22.77
2019-04-25T13:25:44.454Z,22.77
2019-04-25T13:31:41.506Z,23.23
2019-04-25T13:37:16.748Z,23.77
2019-04-25T13:42:58.016Z,23.77
2019-04-25T13:48:40.539Z,24.06
2019-04-25T13:54:45.856Z,23.85
2019-04-25T14:00:54.066Z,24.27
2019-04-25T14:06:30.854Z,24.91
2019-04-25T14:24:22.899Z,25.67
2019-04-25T14:36:52.084Z,24.67
2019-04-25T14:48:42.780Z,24.19
2019-04-25T15:07:22.053Z,24.27
2019-04-25T15:25:10.405Z,25.79
2019-04-25T15:37:06.477Z,25.21
2019-04-25T16:15:36.055Z,24.78
2019-04-25T16:21:42.071Z,25.07
2019-04-25T16:27:30.350Z,24.79
2019-04-25T16:33:46.171Z,24.63
2019-04-25T16:45:57.032Z,26.73
2019-04-25T16:52:02.962Z,25.87
2019-04-25T17:05:27.337Z,25.37
2019-04-25T17:34:30.783Z,23.53
2019-04-25T17:39:39.759Z,23.35
2019-04-25T18:02:12.198Z,22.56
2019-04-25T18:07:21.039Z,22.69
2019-04-25T18:12:40.421Z,21.79
2019-04-25T18:17:45.158Z,21.24
2019-04-25T18:23:03.791Z,20.87
2019-04-25T18:28:31.652Z,20.48
2019-04-25T18:33:40.173Z,20.29
2019-04-25T18:39:24.071Z,20.39
2019-04-25T18:44:29.717Z,20.36
2019-04-25T18:49:32.532Z,20.06
2019-04-25T18:54:54.419Z,19.73
2019-04-25T20:16:15.698Z,15.56
2019-04-25T20:21:29.737Z,15.71
2019-04-25T20:26:32.613Z,15.54
2019-04-25T20:31:34.811Z,15.53
2019-04-25T20:36:37.905Z,15.64
2019-04-25T20:41:40.081Z,15.42
2019-04-25T20:46:42.512Z,15.39
2019-04-25T20:51:44.588Z,15.38
2019-04-25T20:56:48.192Z,15.31
2019-04-25T21:01:51.485Z,15.25
2019-04-25T21:06:53.662Z,15.09
2019-04-25T21:11:55.746Z,15.10
2019-04-25T21:17:04.877Z,15.23
2019-04-25T21:22:07.001Z,15.12
2019-04-25T21:27:09.221Z,15.01
2019-04-25T21:32:11.351Z,14.91
2019-04-25T21:37:13.495Z,14.93
2019-04-25T21:42:25.980Z,14.79
2019-04-25T21:47:28.744Z,14.72
2019-04-25T21:52:31.017Z,14.65
2019-04-25T21:57:33.625Z,14.59
2019-04-25T22:02:36.010Z,14.56
2019-04-25T22:07:38.581Z,14.57
2019-04-25T22:12:40.857Z,14.54
2019-04-25T22:17:43.341Z,14.52
2019-04-25T22:22:46.854Z,14.44
2019-04-25T22:27:49.696Z,14.41
2019-04-25T22:33:03.522Z,14.43
2019-04-25T22:38:06.390Z,14.37
2019-04-25T22:43:08.506Z,14.36
2019-04-25T22:48:11.009Z,14.27
2019-04-25T22:53:21.767Z,14.24
2019-04-25T22:58:22.169Z,14.29
2019-04-25T23:03:32.470Z,13.98
2019-04-25T23:08:35.099Z,13.86
2019-04-25T23:13:37.258Z,13.56
2019-04-25T23:18:39.652Z,13.59
2019-04-25T23:23:43.057Z,13.54
2019-04-25T23:28:46.569Z,13.42
2019-04-25T23:33:49.561Z,13.12
2019-04-25T23:38:52.310Z,13.00
2019-04-25T23:43:55.075Z,12.68
2019-04-25T23:48:57.385Z,12.89
2019-04-25T23:53:59.653Z,12.61
2019-04-25T23:59:02.246Z,12.70
